sensor_id;sensor_type;location;lat;lon;timestamp;temperature;humidity
71291;DHT22;59073;51.994;4.448;2023-11-19T00:01:53;14.90;87.53
71291;DHT22;59073;51.994;4.448;2023-11-19T00:04:18;14.85;87.65
71291;DHT22;59073;51.994;4.448;2023-11-19T00:06:44;14.88;87.63
71291;DHT22;59073;51.994;4.448;2023-11-19T00:09:09;14.82;87.55
71291;DHT22;59073;51.994;4.448;2023-11-19T00:11:35;14.75;88.07
71291;DHT22;59073;51.994;4.448;2023-11-19T00:14:00;14.73;87.97
71291;DHT22;59073;51.994;4.448;2023-11-19T00:16:25;14.68;88.11
71291;DHT22;59073;51.994;4.448;2023-11-19T00:18:51;14.67;88.18
71291;DHT22;59073;51.994;4.448;2023-11-19T00:21:16;14.72;87.93
71291;DHT22;59073;51.994;4.448;2023-11-19T00:23:42;14.71;87.92
71291;DHT22;59073;51.994;4.448;2023-11-19T00:26:07;14.71;87.47
71291;DHT22;59073;51.994;4.448;2023-11-19T00:28:33;14.71;87.38
71291;DHT22;59073;51.994;4.448;2023-11-19T00:30:59;14.67;87.29
71291;DHT22;59073;51.994;4.448;2023-11-19T00:33:24;14.65;87.39
71291;DHT22;59073;51.994;4.448;2023-11-19T00:35:50;14.67;87.37
71291;DHT22;59073;51.994;4.448;2023-11-19T00:38:16;14.64;87.21
71291;DHT22;59073;51.994;4.448;2023-11-19T00:40:41;14.62;87.08
71291;DHT22;59073;51.994;4.448;2023-11-19T00:43:07;14.52;87.64
71291;DHT22;59073;51.994;4.448;2023-11-19T00:45:33;14.54;87.67
71291;DHT22;59073;51.994;4.448;2023-11-19T00:47:58;14.51;87.77
71291;DHT22;59073;51.994;4.448;2023-11-19T00:50:25;14.52;87.85
71291;DHT22;59073;51.994;4.448;2023-11-19T00:52:50;14.51;87.81
71291;DHT22;59073;51.994;4.448;2023-11-19T00:55:16;14.49;87.42
71291;DHT22;59073;51.994;4.448;2023-11-19T00:57:42;14.49;87.55
71291;DHT22;59073;51.994;4.448;2023-11-19T01:00:09;14.46;87.46
71291;DHT22;59073;51.994;4.448;2023-11-19T01:02:45;14.48;87.23
71291;DHT22;59073;51.994;4.448;2023-11-19T01:05:11;14.41;87.06
71291;DHT22;59073;51.994;4.448;2023-11-19T01:07:39;14.31;87.50
71291;DHT22;59073;51.994;4.448;2023-11-19T01:10:05;14.34;87.10
71291;DHT22;59073;51.994;4.448;2023-11-19T01:12:31;14.32;86.98
71291;DHT22;59073;51.994;4.448;2023-11-19T01:14:56;14.24;87.00
71291;DHT22;59073;51.994;4.448;2023-11-19T01:17:23;14.27;86.75
71291;DHT22;59073;51.994;4.448;2023-11-19T01:19:48;14.16;86.92
71291;DHT22;59073;51.994;4.448;2023-11-19T01:22:15;14.18;86.80
71291;DHT22;59073;51.994;4.448;2023-11-19T01:24:40;14.14;86.52
71291;DHT22;59073;51.994;4.448;2023-11-19T01:27:06;14.16;86.50
71291;DHT22;59073;51.994;4.448;2023-11-19T01:29:31;14.10;86.28
71291;DHT22;59073;51.994;4.448;2023-11-19T01:31:57;14.01;86.41
71291;DHT22;59073;51.994;4.448;2023-11-19T01:34:22;13.94;86.51
71291;DHT22;59073;51.994;4.448;2023-11-19T01:36:47;13.99;86.09
71291;DHT22;59073;51.994;4.448;2023-11-19T01:39:14;13.96;86.29
71291;DHT22;59073;51.994;4.448;2023-11-19T01:41:41;13.97;86.14
71291;DHT22;59073;51.994;4.448;2023-11-19T01:44:07;13.90;85.96
71291;DHT22;59073;51.994;4.448;2023-11-19T01:46:33;13.87;86.12
71291;DHT22;59073;51.994;4.448;2023-11-19T01:48:59;13.93;85.99
71291;DHT22;59073;51.994;4.448;2023-11-19T01:51:25;13.91;85.74
71291;DHT22;59073;51.994;4.448;2023-11-19T01:53:52;13.96;85.57
71291;DHT22;59073;51.994;4.448;2023-11-19T01:56:19;13.94;85.19
71291;DHT22;59073;51.994;4.448;2023-11-19T01:58:48;13.94;85.12
71291;DHT22;59073;51.994;4.448;2023-11-19T02:01:14;13.89;85.28
71291;DHT22;59073;51.994;4.448;2023-11-19T02:03:40;13.84;85.03
71291;DHT22;59073;51.994;4.448;2023-11-19T02:06:06;13.72;85.72
71291;DHT22;59073;51.994;4.448;2023-11-19T02:08:32;13.73;85.60
71291;DHT22;59073;51.994;4.448;2023-11-19T02:10:58;13.69;85.41
71291;DHT22;59073;51.994;4.448;2023-11-19T02:13:28;13.65;85.93
71291;DHT22;59073;51.994;4.448;2023-11-19T02:15:54;13.62;86.08
71291;DHT22;59073;51.994;4.448;2023-11-19T02:18:22;13.70;85.62
71291;DHT22;59073;51.994;4.448;2023-11-19T02:20:48;13.59;85.83
71291;DHT22;59073;51.994;4.448;2023-11-19T02:23:15;13.59;85.93
71291;DHT22;59073;51.994;4.448;2023-11-19T02:25:41;13.49;86.25
71291;DHT22;59073;51.994;4.448;2023-11-19T02:28:08;13.53;86.03
71291;DHT22;59073;51.994;4.448;2023-11-19T02:30:35;13.43;86.27
71291;DHT22;59073;51.994;4.448;2023-11-19T02:33:01;13.46;86.31
71291;DHT22;59073;51.994;4.448;2023-11-19T02:35:31;13.53;86.03
71291;DHT22;59073;51.994;4.448;2023-11-19T02:37:57;13.58;85.61
71291;DHT22;59073;51.994;4.448;2023-11-19T02:40:24;13.62;85.20
71291;DHT22;59073;51.994;4.448;2023-11-19T02:42:50;13.58;85.33
71291;DHT22;59073;51.994;4.448;2023-11-19T02:45:16;13.45;85.22
71291;DHT22;59073;51.994;4.448;2023-11-19T02:47:41;13.46;85.42
71291;DHT22;59073;51.994;4.448;2023-11-19T02:50:11;13.41;85.57
71291;DHT22;59073;51.994;4.448;2023-11-19T02:52:41;13.41;85.67
71291;DHT22;59073;51.994;4.448;2023-11-19T02:55:07;13.46;85.36
71291;DHT22;59073;51.994;4.448;2023-11-19T02:57:38;13.34;85.83
71291;DHT22;59073;51.994;4.448;2023-11-19T03:00:20;13.32;85.78
71291;DHT22;59073;51.994;4.448;2023-11-19T03:02:50;13.22;85.88
71291;DHT22;59073;51.994;4.448;2023-11-19T03:05:25;13.26;85.89
71291;DHT22;59073;51.994;4.448;2023-11-19T03:07:52;13.21;85.76
71291;DHT22;59073;51.994;4.448;2023-11-19T03:10:17;13.34;85.50
71291;DHT22;59073;51.994;4.448;2023-11-19T03:12:44;13.32;85.33
71291;DHT22;59073;51.994;4.448;2023-11-19T03:15:11;13.34;85.32
71291;DHT22;59073;51.994;4.448;2023-11-19T03:17:40;13.34;84.96
71291;DHT22;59073;51.994;4.448;2023-11-19T03:20:07;13.35;84.96
71291;DHT22;59073;51.994;4.448;2023-11-19T03:22:41;13.35;85.02
71291;DHT22;59073;51.994;4.448;2023-11-19T03:25:12;13.34;84.99
71291;DHT22;59073;51.994;4.448;2023-11-19T03:27:38;13.26;84.87
71291;DHT22;59073;51.994;4.448;2023-11-19T03:30:08;13.22;85.13
71291;DHT22;59073;51.994;4.448;2023-11-19T03:32:35;13.22;84.97
71291;DHT22;59073;51.994;4.448;2023-11-19T03:35:02;13.21;85.11
71291;DHT22;59073;51.994;4.448;2023-11-19T03:37:29;13.22;85.17
71291;DHT22;59073;51.994;4.448;2023-11-19T03:39:55;13.19;85.31
71291;DHT22;59073;51.994;4.448;2023-11-19T03:42:28;13.18;85.20
71291;DHT22;59073;51.994;4.448;2023-11-19T03:44:55;13.14;85.40
71291;DHT22;59073;51.994;4.448;2023-11-19T03:47:21;13.14;85.58
71291;DHT22;59073;51.994;4.448;2023-11-19T03:49:48;13.16;85.44
71291;DHT22;59073;51.994;4.448;2023-11-19T03:52:14;13.10;85.48
71291;DHT22;59073;51.994;4.448;2023-11-19T03:54:39;13.08;85.24
71291;DHT22;59073;51.994;4.448;2023-11-19T03:57:04;13.01;85.41
71291;DHT22;59073;51.994;4.448;2023-11-19T03:59:30;13.01;85.48
71291;DHT22;59073;51.994;4.448;2023-11-19T04:01:56;13.00;85.34
71291;DHT22;59073;51.994;4.448;2023-11-19T04:04:26;13.07;85.17
71291;DHT22;59073;51.994;4.448;2023-11-19T04:06:51;12.95;85.20
71291;DHT22;59073;51.994;4.448;2023-11-19T04:09:17;13.01;84.98
71291;DHT22;59073;51.994;4.448;2023-11-19T04:11:42;13.05;84.49
71291;DHT22;59073;51.994;4.448;2023-11-19T04:14:07;13.01;84.61
71291;DHT22;59073;51.994;4.448;2023-11-19T04:16:33;13.00;84.26
71291;DHT22;59073;51.994;4.448;2023-11-19T04:18:58;13.00;84.19
71291;DHT22;59073;51.994;4.448;2023-11-19T04:21:24;13.01;83.83
71291;DHT22;59073;51.994;4.448;2023-11-19T04:23:49;13.02;84.09
71291;DHT22;59073;51.994;4.448;2023-11-19T04:26:15;13.01;84.00
71291;DHT22;59073;51.994;4.448;2023-11-19T04:28:41;13.05;83.82
71291;DHT22;59073;51.994;4.448;2023-11-19T04:31:06;13.05;83.81
71291;DHT22;59073;51.994;4.448;2023-11-19T04:33:32;13.14;83.44
71291;DHT22;59073;51.994;4.448;2023-11-19T04:35:57;13.08;83.39
71291;DHT22;59073;51.994;4.448;2023-11-19T04:38:22;13.05;83.34
71291;DHT22;59073;51.994;4.448;2023-11-19T04:40:48;13.05;83.29
71291;DHT22;59073;51.994;4.448;2023-11-19T04:43:13;13.04;83.22
71291;DHT22;59073;51.994;4.448;2023-11-19T04:45:39;12.98;83.32
71291;DHT22;59073;51.994;4.448;2023-11-19T04:48:05;13.01;83.24
71291;DHT22;59073;51.994;4.448;2023-11-19T04:50:30;13.04;83.20
71291;DHT22;59073;51.994;4.448;2023-11-19T04:52:56;12.95;83.44
71291;DHT22;59073;51.994;4.448;2023-11-19T04:55:21;13.00;83.39
71291;DHT22;59073;51.994;4.448;2023-11-19T04:57:47;12.95;83.26
71291;DHT22;59073;51.994;4.448;2023-11-19T05:00:13;12.92;83.60
71291;DHT22;59073;51.994;4.448;2023-11-19T05:02:39;12.90;83.78
71291;DHT22;59073;51.994;4.448;2023-11-19T05:05:04;12.90;83.79
71291;DHT22;59073;51.994;4.448;2023-11-19T05:07:30;12.88;83.82
71291;DHT22;59073;51.994;4.448;2023-11-19T05:09:56;12.92;83.76
71291;DHT22;59073;51.994;4.448;2023-11-19T05:12:21;13.01;83.43
71291;DHT22;59073;51.994;4.448;2023-11-19T05:14:48;12.92;83.80
71291;DHT22;59073;51.994;4.448;2023-11-19T05:17:17;12.91;83.83
71291;DHT22;59073;51.994;4.448;2023-11-19T05:19:43;12.92;84.13
71291;DHT22;59073;51.994;4.448;2023-11-19T05:22:09;12.87;84.05
71291;DHT22;59073;51.994;4.448;2023-11-19T05:24:34;12.83;84.18
71291;DHT22;59073;51.994;4.448;2023-11-19T05:27:01;12.87;84.20
71291;DHT22;59073;51.994;4.448;2023-11-19T05:29:27;12.98;83.74
71291;DHT22;59073;51.994;4.448;2023-11-19T05:31:52;12.92;83.69
71291;DHT22;59073;51.994;4.448;2023-11-19T05:34:20;12.90;84.15
71291;DHT22;59073;51.994;4.448;2023-11-19T05:36:46;12.94;83.92
71291;DHT22;59073;51.994;4.448;2023-11-19T05:39:12;12.91;83.70
71291;DHT22;59073;51.994;4.448;2023-11-19T05:41:37;12.92;83.75
71291;DHT22;59073;51.994;4.448;2023-11-19T05:44:03;12.91;83.33
71291;DHT22;59073;51.994;4.448;2023-11-19T05:46:28;12.85;83.77
71291;DHT22;59073;51.994;4.448;2023-11-19T05:48:54;12.85;83.33
71291;DHT22;59073;51.994;4.448;2023-11-19T05:51:19;12.81;83.53
71291;DHT22;59073;51.994;4.448;2023-11-19T05:53:45;12.88;83.30
71291;DHT22;59073;51.994;4.448;2023-11-19T05:56:11;12.85;83.14
71291;DHT22;59073;51.994;4.448;2023-11-19T05:58:37;12.83;83.02
71291;DHT22;59073;51.994;4.448;2023-11-19T06:01:05;12.84;83.24
71291;DHT22;59073;51.994;4.448;2023-11-19T06:03:32;12.74;83.40
71291;DHT22;59073;51.994;4.448;2023-11-19T06:05:58;12.83;83.43
71291;DHT22;59073;51.994;4.448;2023-11-19T06:08:23;12.76;83.52
71291;DHT22;59073;51.994;4.448;2023-11-19T06:10:49;12.80;83.29
71291;DHT22;59073;51.994;4.448;2023-11-19T06:13:16;12.77;83.17
71291;DHT22;59073;51.994;4.448;2023-11-19T06:15:42;12.78;83.12
71291;DHT22;59073;51.994;4.448;2023-11-19T06:18:08;12.85;82.61
71291;DHT22;59073;51.994;4.448;2023-11-19T06:20:34;12.85;82.56
71291;DHT22;59073;51.994;4.448;2023-11-19T06:23:00;12.78;82.76
71291;DHT22;59073;51.994;4.448;2023-11-19T06:25:25;12.80;82.61
71291;DHT22;59073;51.994;4.448;2023-11-19T06:27:51;12.85;82.60
71291;DHT22;59073;51.994;4.448;2023-11-19T06:30:17;12.91;81.99
71291;DHT22;59073;51.994;4.448;2023-11-19T06:32:42;12.83;82.37
71291;DHT22;59073;51.994;4.448;2023-11-19T06:35:08;12.83;82.58
71291;DHT22;59073;51.994;4.448;2023-11-19T06:37:35;12.76;82.87
71291;DHT22;59073;51.994;4.448;2023-11-19T06:40:01;12.76;82.94
71291;DHT22;59073;51.994;4.448;2023-11-19T06:42:27;12.65;83.46
71291;DHT22;59073;51.994;4.448;2023-11-19T06:44:53;12.70;83.44
71291;DHT22;59073;51.994;4.448;2023-11-19T06:47:18;12.73;83.41
71291;DHT22;59073;51.994;4.448;2023-11-19T06:49:44;12.76;83.47
71291;DHT22;59073;51.994;4.448;2023-11-19T06:52:09;12.76;83.46
71291;DHT22;59073;51.994;4.448;2023-11-19T06:54:35;12.81;83.38
71291;DHT22;59073;51.994;4.448;2023-11-19T06:57:00;12.91;83.29
71291;DHT22;59073;51.994;4.448;2023-11-19T06:59:26;12.91;83.53
71291;DHT22;59073;51.994;4.448;2023-11-19T07:01:51;12.92;84.00
71291;DHT22;59073;51.994;4.448;2023-11-19T07:04:17;13.12;83.20
71291;DHT22;59073;51.994;4.448;2023-11-19T07:06:42;13.14;83.19
71291;DHT22;59073;51.994;4.448;2023-11-19T07:09:08;13.16;83.29
71291;DHT22;59073;51.994;4.448;2023-11-19T07:11:39;13.12;83.36
71291;DHT22;59073;51.994;4.448;2023-11-19T07:14:05;13.16;83.33
71291;DHT22;59073;51.994;4.448;2023-11-19T07:16:32;13.18;83.31
71291;DHT22;59073;51.994;4.448;2023-11-19T07:19:00;13.21;83.00
71291;DHT22;59073;51.994;4.448;2023-11-19T07:21:25;13.16;82.97
71291;DHT22;59073;51.994;4.448;2023-11-19T07:23:51;13.18;82.89
71291;DHT22;59073;51.994;4.448;2023-11-19T07:26:17;13.15;82.93
71291;DHT22;59073;51.994;4.448;2023-11-19T07:28:42;13.15;83.07
71291;DHT22;59073;51.994;4.448;2023-11-19T07:31:10;13.19;82.53
71291;DHT22;59073;51.994;4.448;2023-11-19T07:33:36;13.22;82.28
71291;DHT22;59073;51.994;4.448;2023-11-19T07:36:02;13.25;82.46
71291;DHT22;59073;51.994;4.448;2023-11-19T07:38:27;13.28;82.08
71291;DHT22;59073;51.994;4.448;2023-11-19T07:40:53;13.31;82.13
71291;DHT22;59073;51.994;4.448;2023-11-19T07:43:18;13.32;81.87
71291;DHT22;59073;51.994;4.448;2023-11-19T07:45:43;13.26;82.14
71291;DHT22;59073;51.994;4.448;2023-11-19T07:48:10;13.26;81.95
71291;DHT22;59073;51.994;4.448;2023-11-19T07:50:38;13.34;81.49
71291;DHT22;59073;51.994;4.448;2023-11-19T07:53:04;13.39;81.42
71291;DHT22;59073;51.994;4.448;2023-11-19T07:55:30;13.42;81.09
71291;DHT22;59073;51.994;4.448;2023-11-19T07:57:55;13.43;80.66
71291;DHT22;59073;51.994;4.448;2023-11-19T08:00:21;13.46;80.64
71291;DHT22;59073;51.994;4.448;2023-11-19T08:02:46;13.39;80.93
71291;DHT22;59073;51.994;4.448;2023-11-19T08:05:11;13.48;80.81
71291;DHT22;59073;51.994;4.448;2023-11-19T08:07:37;13.41;81.32
71291;DHT22;59073;51.994;4.448;2023-11-19T08:10:04;13.53;80.86
71291;DHT22;59073;51.994;4.448;2023-11-19T08:12:30;13.41;81.53
71291;DHT22;59073;51.994;4.448;2023-11-19T08:14:56;13.41;81.30
71291;DHT22;59073;51.994;4.448;2023-11-19T08:17:24;13.50;81.15
71291;DHT22;59073;51.994;4.448;2023-11-19T08:19:50;13.59;80.94
71291;DHT22;59073;51.994;4.448;2023-11-19T08:22:15;13.72;80.58
71291;DHT22;59073;51.994;4.448;2023-11-19T08:24:42;13.73;80.44
71291;DHT22;59073;51.994;4.448;2023-11-19T08:27:08;13.79;80.31
71291;DHT22;59073;51.994;4.448;2023-11-19T08:29:33;13.90;80.16
71291;DHT22;59073;51.994;4.448;2023-11-19T08:32:03;14.22;79.36
71291;DHT22;59073;51.994;4.448;2023-11-19T08:34:29;14.22;79.16
71291;DHT22;59073;51.994;4.448;2023-11-19T08:36:55;14.31;78.66
71291;DHT22;59073;51.994;4.448;2023-11-19T08:39:21;14.46;78.54
71291;DHT22;59073;51.994;4.448;2023-11-19T08:41:47;14.55;78.32
71291;DHT22;59073;51.994;4.448;2023-11-19T08:44:14;14.59;77.98
71291;DHT22;59073;51.994;4.448;2023-11-19T08:46:47;14.55;78.26
71291;DHT22;59073;51.994;4.448;2023-11-19T08:49:12;14.45;78.45
71291;DHT22;59073;51.994;4.448;2023-11-19T08:51:37;14.45;78.37
71291;DHT22;59073;51.994;4.448;2023-11-19T08:54:03;14.49;78.87
71291;DHT22;59073;51.994;4.448;2023-11-19T08:56:28;14.52;78.52
71291;DHT22;59073;51.994;4.448;2023-11-19T08:58:58;14.55;78.41
71291;DHT22;59073;51.994;4.448;2023-11-19T09:01:23;14.45;78.97
71291;DHT22;59073;51.994;4.448;2023-11-19T09:03:50;14.46;79.09
71291;DHT22;59073;51.994;4.448;2023-11-19T09:06:15;14.45;78.86
71291;DHT22;59073;51.994;4.448;2023-11-19T09:08:44;14.54;79.02
71291;DHT22;59073;51.994;4.448;2023-11-19T09:11:10;14.55;78.46
71291;DHT22;59073;51.994;4.448;2023-11-19T09:13:36;14.45;78.12
71291;DHT22;59073;51.994;4.448;2023-11-19T09:16:01;14.38;78.89
71291;DHT22;59073;51.994;4.448;2023-11-19T09:18:30;14.49;78.61
71291;DHT22;59073;51.994;4.448;2023-11-19T09:20:57;14.64;78.41
71291;DHT22;59073;51.994;4.448;2023-11-19T09:23:22;14.81;78.05
71291;DHT22;59073;51.994;4.448;2023-11-19T09:25:47;14.76;77.67
71291;DHT22;59073;51.994;4.448;2023-11-19T09:28:13;14.61;77.74
71291;DHT22;59073;51.994;4.448;2023-11-19T09:30:39;14.67;78.04
71291;DHT22;59073;51.994;4.448;2023-11-19T09:33:05;14.69;77.55
71291;DHT22;59073;51.994;4.448;2023-11-19T09:35:30;14.73;77.47
71291;DHT22;59073;51.994;4.448;2023-11-19T09:37:56;14.69;76.97
71291;DHT22;59073;51.994;4.448;2023-11-19T09:40:22;14.95;76.60
71291;DHT22;59073;51.994;4.448;2023-11-19T09:42:48;15.07;75.50
71291;DHT22;59073;51.994;4.448;2023-11-19T09:45:16;15.18;74.90
71291;DHT22;59073;51.994;4.448;2023-11-19T09:47:46;15.12;74.67
71291;DHT22;59073;51.994;4.448;2023-11-19T09:50:17;14.93;74.74
71291;DHT22;59073;51.994;4.448;2023-11-19T09:52:46;14.81;74.99
71291;DHT22;59073;51.994;4.448;2023-11-19T09:55:12;14.92;75.75
71291;DHT22;59073;51.994;4.448;2023-11-19T09:57:41;14.88;74.85
71291;DHT22;59073;51.994;4.448;2023-11-19T10:00:08;14.92;75.69
71291;DHT22;59073;51.994;4.448;2023-11-19T10:02:36;14.79;75.14
71291;DHT22;59073;51.994;4.448;2023-11-19T10:05:05;14.79;75.05
71291;DHT22;59073;51.994;4.448;2023-11-19T10:07:32;14.75;75.48
71291;DHT22;59073;51.994;4.448;2023-11-19T10:09:59;14.98;75.26
71291;DHT22;59073;51.994;4.448;2023-11-19T10:12:27;15.19;75.43
71291;DHT22;59073;51.994;4.448;2023-11-19T10:14:56;15.39;74.77
71291;DHT22;59073;51.994;4.448;2023-11-19T10:17:27;15.49;74.53
71291;DHT22;59073;51.994;4.448;2023-11-19T10:19:54;15.54;73.77
71291;DHT22;59073;51.994;4.448;2023-11-19T10:22:20;15.62;72.97
71291;DHT22;59073;51.994;4.448;2023-11-19T10:24:45;15.64;72.88
71291;DHT22;59073;51.994;4.448;2023-11-19T10:27:10;15.64;73.14
71291;DHT22;59073;51.994;4.448;2023-11-19T10:29:37;15.71;73.13
71291;DHT22;59073;51.994;4.448;2023-11-19T10:32:03;15.68;72.18
71291;DHT22;59073;51.994;4.448;2023-11-19T10:34:28;15.72;72.73
71291;DHT22;59073;51.994;4.448;2023-11-19T10:36:55;15.70;73.02
71291;DHT22;59073;51.994;4.448;2023-11-19T10:39:21;15.70;73.38
71291;DHT22;59073;51.994;4.448;2023-11-19T10:41:46;15.72;73.02
71291;DHT22;59073;51.994;4.448;2023-11-19T10:44:12;15.49;71.96
71291;DHT22;59073;51.994;4.448;2023-11-19T10:46:39;15.31;72.63
71291;DHT22;59073;51.994;4.448;2023-11-19T10:49:06;15.34;73.41
71291;DHT22;59073;51.994;4.448;2023-11-19T10:51:32;15.31;73.40
71291;DHT22;59073;51.994;4.448;2023-11-19T10:54:06;15.44;74.13
71291;DHT22;59073;51.994;4.448;2023-11-19T10:56:33;15.54;74.76
71291;DHT22;59073;51.994;4.448;2023-11-19T10:59:00;15.54;75.17
71291;DHT22;59073;51.994;4.448;2023-11-19T11:01:39;15.71;75.87
71291;DHT22;59073;51.994;4.448;2023-11-19T11:04:14;15.94;75.80
71291;DHT22;59073;51.994;4.448;2023-11-19T11:06:41;16.04;75.78
71291;DHT22;59073;51.994;4.448;2023-11-19T11:09:09;15.87;76.12
71291;DHT22;59073;51.994;4.448;2023-11-19T11:11:39;15.88;76.73
71291;DHT22;59073;51.994;4.448;2023-11-19T11:14:07;15.81;75.94
71291;DHT22;59073;51.994;4.448;2023-11-19T11:16:36;15.80;77.01
71291;DHT22;59073;51.994;4.448;2023-11-19T11:19:03;15.74;76.87
71291;DHT22;59073;51.994;4.448;2023-11-19T11:21:30;15.70;76.44
71291;DHT22;59073;51.994;4.448;2023-11-19T11:29:31;16.06;77.01
71291;DHT22;59073;51.994;4.448;2023-11-19T11:32:16;16.11;75.86
71291;DHT22;59073;51.994;4.448;2023-11-19T11:35:03;16.23;75.44
71291;DHT22;59073;51.994;4.448;2023-11-19T11:38:04;16.19;75.30
71291;DHT22;59073;51.994;4.448;2023-11-19T11:40:32;15.95;75.55
71291;DHT22;59073;51.994;4.448;2023-11-19T11:42:57;15.88;75.68
71291;DHT22;59073;51.994;4.448;2023-11-19T11:45:43;15.80;74.89
71291;DHT22;59073;51.994;4.448;2023-11-19T11:48:12;15.67;73.86
71291;DHT22;59073;51.994;4.448;2023-11-19T11:51:08;15.60;72.90
71291;DHT22;59073;51.994;4.448;2023-11-19T11:53:34;15.84;73.46
71291;DHT22;59073;51.994;4.448;2023-11-19T11:56:00;15.87;72.97
71291;DHT22;59073;51.994;4.448;2023-11-19T11:58:32;15.82;73.01
71291;DHT22;59073;51.994;4.448;2023-11-19T12:01:01;15.97;72.16
71291;DHT22;59073;51.994;4.448;2023-11-19T12:03:28;15.72;71.21
71291;DHT22;59073;51.994;4.448;2023-11-19T12:05:56;15.57;72.81
71291;DHT22;59073;51.994;4.448;2023-11-19T12:08:25;15.53;72.65
71291;DHT22;59073;51.994;4.448;2023-11-19T12:10:53;15.57;73.32
71291;DHT22;59073;51.994;4.448;2023-11-19T12:13:20;15.60;74.59
71291;DHT22;59073;51.994;4.448;2023-11-19T12:20:50;15.41;74.15
71291;DHT22;59073;51.994;4.448;2023-11-19T12:23:15;15.37;74.61
71291;DHT22;59073;51.994;4.448;2023-11-19T12:25:41;15.33;75.40
71291;DHT22;59073;51.994;4.448;2023-11-19T12:28:11;15.33;75.04
71291;DHT22;59073;51.994;4.448;2023-11-19T12:30:37;15.34;74.82
71291;DHT22;59073;51.994;4.448;2023-11-19T12:33:10;15.20;74.65
71291;DHT22;59073;51.994;4.448;2023-11-19T12:35:54;15.00;75.04
71291;DHT22;59073;51.994;4.448;2023-11-19T12:38:21;14.93;75.65
71291;DHT22;59073;51.994;4.448;2023-11-19T12:40:47;14.96;75.99
71291;DHT22;59073;51.994;4.448;2023-11-19T12:43:22;14.98;75.74
71291;DHT22;59073;51.994;4.448;2023-11-19T12:45:50;14.98;76.05
71291;DHT22;59073;51.994;4.448;2023-11-19T12:48:15;14.99;75.85
71291;DHT22;59073;51.994;4.448;2023-11-19T12:50:54;15.04;75.25
71291;DHT22;59073;51.994;4.448;2023-11-19T12:53:20;15.07;74.99
71291;DHT22;59073;51.994;4.448;2023-11-19T12:55:46;15.02;75.85
71291;DHT22;59073;51.994;4.448;2023-11-19T12:58:37;15.04;75.37
71291;DHT22;59073;51.994;4.448;2023-11-19T13:01:05;15.16;75.45
71291;DHT22;59073;51.994;4.448;2023-11-19T13:03:36;15.23;75.12
71291;DHT22;59073;51.994;4.448;2023-11-19T13:06:05;15.13;75.59
71291;DHT22;59073;51.994;4.448;2023-11-19T13:08:37;15.18;76.47
71291;DHT22;59073;51.994;4.448;2023-11-19T13:11:03;15.06;77.09
71291;DHT22;59073;51.994;4.448;2023-11-19T13:13:29;14.98;77.93
71291;DHT22;59073;51.994;4.448;2023-11-19T13:16:02;14.90;78.48
71291;DHT22;59073;51.994;4.448;2023-11-19T13:18:28;14.75;79.18
71291;DHT22;59073;51.994;4.448;2023-11-19T13:20:53;14.86;78.84
71291;DHT22;59073;51.994;4.448;2023-11-19T13:23:22;14.93;78.71
71291;DHT22;59073;51.994;4.448;2023-11-19T13:25:48;15.02;78.58
71291;DHT22;59073;51.994;4.448;2023-11-19T13:28:14;15.04;78.75
71291;DHT22;59073;51.994;4.448;2023-11-19T13:30:39;14.96;78.58
71291;DHT22;59073;51.994;4.448;2023-11-19T13:33:05;14.78;78.59
71291;DHT22;59073;51.994;4.448;2023-11-19T13:35:30;14.59;78.95
71291;DHT22;59073;51.994;4.448;2023-11-19T13:37:55;14.54;78.99
71291;DHT22;59073;51.994;4.448;2023-11-19T13:40:21;14.48;78.58
71291;DHT22;59073;51.994;4.448;2023-11-19T13:42:47;14.44;78.45
71291;DHT22;59073;51.994;4.448;2023-11-19T13:45:14;14.42;77.68
71291;DHT22;59073;51.994;4.448;2023-11-19T13:47:42;14.40;77.86
71291;DHT22;59073;51.994;4.448;2023-11-19T13:50:13;14.40;77.95
71291;DHT22;59073;51.994;4.448;2023-11-19T13:52:41;14.42;77.62
71291;DHT22;59073;51.994;4.448;2023-11-19T13:55:08;14.38;77.63
71291;DHT22;59073;51.994;4.448;2023-11-19T13:57:35;14.28;78.15
71291;DHT22;59073;51.994;4.448;2023-11-19T14:00:06;14.24;78.23
71291;DHT22;59073;51.994;4.448;2023-11-19T14:02:33;14.24;78.29
71291;DHT22;59073;51.994;4.448;2023-11-19T14:04:59;14.27;78.47
71291;DHT22;59073;51.994;4.448;2023-11-19T14:07:25;14.30;78.26
71291;DHT22;59073;51.994;4.448;2023-11-19T14:09:50;14.31;78.37
71291;DHT22;59073;51.994;4.448;2023-11-19T14:12:16;14.27;78.61
71291;DHT22;59073;51.994;4.448;2023-11-19T14:14:41;14.28;78.74
71291;DHT22;59073;51.994;4.448;2023-11-19T14:17:07;14.31;79.06
71291;DHT22;59073;51.994;4.448;2023-11-19T14:19:33;14.35;79.10
71291;DHT22;59073;51.994;4.448;2023-11-19T14:21:59;14.41;78.90
71291;DHT22;59073;51.994;4.448;2023-11-19T14:24:25;14.32;78.98
71291;DHT22;59073;51.994;4.448;2023-11-19T14:26:51;14.31;77.96
71291;DHT22;59073;51.994;4.448;2023-11-19T14:29:17;14.45;77.93
71291;DHT22;59073;51.994;4.448;2023-11-19T14:31:42;14.45;77.17
71291;DHT22;59073;51.994;4.448;2023-11-19T14:34:07;14.54;76.72
71291;DHT22;59073;51.994;4.448;2023-11-19T14:36:33;14.58;76.95
71291;DHT22;59073;51.994;4.448;2023-11-19T14:38:58;14.61;76.34
71291;DHT22;59073;51.994;4.448;2023-11-19T14:41:24;14.58;76.50
71291;DHT22;59073;51.994;4.448;2023-11-19T14:43:50;14.57;76.49
71291;DHT22;59073;51.994;4.448;2023-11-19T14:46:15;14.59;76.55
71291;DHT22;59073;51.994;4.448;2023-11-19T14:48:41;14.59;76.34
71291;DHT22;59073;51.994;4.448;2023-11-19T14:51:06;14.45;77.45
71291;DHT22;59073;51.994;4.448;2023-11-19T14:53:32;14.38;78.07
71291;DHT22;59073;51.994;4.448;2023-11-19T14:55:58;14.40;78.44
71291;DHT22;59073;51.994;4.448;2023-11-19T14:58:23;14.38;78.75
71291;DHT22;59073;51.994;4.448;2023-11-19T15:00:51;14.35;79.10
71291;DHT22;59073;51.994;4.448;2023-11-19T15:03:16;14.24;79.59
71291;DHT22;59073;51.994;4.448;2023-11-19T15:05:45;14.22;79.95
71291;DHT22;59073;51.994;4.448;2023-11-19T15:08:11;14.16;80.31
71291;DHT22;59073;51.994;4.448;2023-11-19T15:10:37;14.07;80.53
71291;DHT22;59073;51.994;4.448;2023-11-19T15:13:03;14.06;80.87
71291;DHT22;59073;51.994;4.448;2023-11-19T15:15:29;14.06;80.93
71291;DHT22;59073;51.994;4.448;2023-11-19T15:17:55;14.01;81.30
71291;DHT22;59073;51.994;4.448;2023-11-19T15:20:20;14.00;81.21
71291;DHT22;59073;51.994;4.448;2023-11-19T15:22:46;13.97;80.93
71291;DHT22;59073;51.994;4.448;2023-11-19T15:25:12;14.00;80.94
71291;DHT22;59073;51.994;4.448;2023-11-19T15:27:38;14.04;80.72
71291;DHT22;59073;51.994;4.448;2023-11-19T15:30:04;13.94;80.82
71291;DHT22;59073;51.994;4.448;2023-11-19T15:32:30;13.93;80.88
71291;DHT22;59073;51.994;4.448;2023-11-19T15:34:57;13.97;80.82
71291;DHT22;59073;51.994;4.448;2023-11-19T15:37:23;13.89;80.90
71291;DHT22;59073;51.994;4.448;2023-11-19T15:39:49;13.84;81.10